Terminal Aerodrome Forecast
Issued by NWS

Home | Current Version | Previous Version | Text Only | Print | Product List | Glossary On
Versions: 1 2 3 4 5 6 7 8 9 10 11 12 13 14 15 16 17 18 19 20
000
FTUS42 KTBW 061100
TAFRSW
TAF
KRSW 061132Z 0612/0712 VRB03KT 4SM BR FEW005 BKN015
      TEMPO 0612/0615 1/4SM FG BKN002 OVC010
     FM061500 04004KT P6SM FEW005 BKN020
     FM061800 02006KT P6SM VCSH SCT015 BKN040
     FM070200 03010KT P6SM VCSH SCT030 BKN050
     FM070600 04009KT P6SM SCT015 BKN040=

USA.gov is the U.S. government's official web portal to all federal, state and local government web resources and services.